Time;durP1;ratioP1;P1;durP2;ratioP2;P2;SDS_P1;SDS_P2;PMS_P1;PMS_P2;Temp;Humidity;BMP_temperature;BMP_pressure;BME280_temperature;BME280_humidity;BME280_pressure;Samples;Min_cycle;Max_cycle;Signal;HPM_P1;HPM_P2
2022/06/02 04:03:58;;;;;;;6.47;5.27;;;11.10;99.90;;;;;;5579532;23;20226;-78
2022/06/02 04:06:40;;;;;;;7.60;6.00;;;11.20;99.90;;;;;;4969749;28;20724;-77
2022/06/02 04:09:26;;;;;;;6.27;5.67;;;11.20;99.90;;;;;;4970040;28;20699;-78
2022/06/02 04:15:10;;;;;;;6.43;5.07;;;11.40;99.90;;;;;;4971787;28;20297;-79
2022/06/02 04:17:44;;;;;;;6.17;5.23;;;11.60;99.90;;;;;;4972550;28;20245;-79
2022/06/02 04:20:36;;;;;;;6.43;4.80;;;11.80;99.90;;;;;;4970206;28;20202;-81
2022/06/02 04:23:30;;;;;;;7.80;5.00;;;11.90;99.90;;;;;;4971281;28;20234;-77
2022/06/02 04:26:10;;;;;;;8.23;4.90;;;12.00;99.90;;;;;;4966511;28;20234;-77
2022/06/02 04:28:47;;;;;;;5.73;5.00;;;12.20;99.90;;;;;;4962106;28;20274;-77
2022/06/02 04:31:30;;;;;;;8.33;5.23;;;12.30;99.90;;;;;;4968253;28;20244;-78
2022/06/02 04:34:11;;;;;;;5.50;5.00;;;12.30;99.90;;;;;;4972918;28;20679;-78
2022/06/02 04:36:47;;;;;;;7.43;5.67;;;12.40;99.90;;;;;;4972807;28;20696;-79
2022/06/02 04:39:27;;;;;;;6.90;5.33;;;12.50;99.90;;;;;;4973387;28;20202;-77
2022/06/02 04:42:05;;;;;;;8.30;5.50;;;12.50;99.90;;;;;;4970846;28;20240;-78
2022/06/02 04:44:41;;;;;;;7.07;5.17;;;12.50;99.90;;;;;;4973050;28;20206;-77
2022/06/02 04:47:18;;;;;;;6.57;5.13;;;12.70;99.90;;;;;;4973383;28;20234;-78
2022/06/02 04:49:55;;;;;;;5.50;4.97;;;12.80;99.90;;;;;;4970227;28;20282;-76
2022/06/02 04:52:33;;;;;;;7.50;5.07;;;12.90;99.90;;;;;;4969669;28;20667;-78
2022/06/02 04:55:13;;;;;;;5.60;5.10;;;13.00;99.90;;;;;;4964090;28;20211;-77
2022/06/02 04:57:51;;;;;;;5.53;5.00;;;13.10;99.90;;;;;;4968652;28;20350;-80
2022/06/02 05:00:24;;;;;;;5.50;4.93;;;13.20;99.90;;;;;;4979840;28;20656;-79
2022/06/02 05:03:00;;;;;;;5.47;4.97;;;13.30;99.90;;;;;;4975330;28;20234;-78
2022/06/02 05:05:38;;;;;;;6.00;5.40;;;13.40;99.90;;;;;;4987707;28;20671;-75
2022/06/02 05:08:54;;;;;;;5.90;5.00;;;13.50;99.90;;;;;;4988011;28;20226;-79
2022/06/02 05:11:37;;;;;;;6.50;5.20;;;13.70;99.90;;;;;;4924396;29;20342;-78
2022/06/02 05:14:16;;;;;;;6.63;4.57;;;13.70;99.90;;;;;;4991100;28;20304;-78
2022/06/02 05:16:53;;;;;;;7.47;5.10;;;13.80;99.90;;;;;;4992279;28;20738;-80
2022/06/02 05:20:00;;;;;;;6.03;5.40;;;14.00;99.90;;;;;;4983660;28;20721;-81
2022/06/02 05:22:57;;;;;;;6.10;4.93;;;13.90;99.90;;;;;;4988868;28;20229;-78
2022/06/02 05:26:01;;;;;;;5.60;5.00;;;14.00;99.90;;;;;;4987907;28;20202;-76
2022/06/02 05:28:55;;;;;;;5.73;4.90;;;13.90;99.90;;;;;;4982376;28;20264;-75
2022/06/02 05:31:53;;;;;;;5.90;5.30;;;14.00;99.90;;;;;;4992584;28;20294;-76
2022/06/02 05:34:53;;;;;;;9.63;4.93;;;14.20;99.90;;;;;;4981406;28;20296;-75
2022/06/02 05:37:34;;;;;;;5.40;4.80;;;14.30;99.90;;;;;;4989454;28;20237;-76
2022/06/02 05:40:16;;;;;;;6.73;5.20;;;14.30;99.90;;;;;;4986657;28;20237;-74
2022/06/02 05:42:57;;;;;;;6.00;5.40;;;14.20;99.90;;;;;;4990916;28;20276;-74
2022/06/02 05:45:53;;;;;;;5.97;5.40;;;14.00;99.90;;;;;;4984962;28;20214;-74
2022/06/02 05:48:43;;;;;;;7.30;5.70;;;14.10;99.90;;;;;;4995279;28;20702;-74
2022/06/02 05:51:19;;;;;;;5.40;4.83;;;14.40;99.90;;;;;;4993632;28;20231;-75
2022/06/02 05:54:05;;;;;;;4.67;4.17;;;15.30;99.90;;;;;;4992535;28;20210;-74
2022/06/02 05:56:45;;;;;;;5.00;4.30;;;16.60;99.90;;;;;;4990955;28;20330;-75
2022/06/02 05:59:42;;;;;;;7.17;4.20;;;17.90;99.90;;;;;;4988370;28;20293;-75
2022/06/02 06:02:42;;;;;;;4.23;3.83;;;18.50;99.90;;;;;;4992007;28;20285;-74
2022/06/02 06:05:17;;;;;;;5.73;4.50;;;18.40;99.90;;;;;;4979329;28;20202;-75
2022/06/02 06:08:21;;;;;;;6.10;4.33;;;18.20;99.90;;;;;;4990523;28;20679;-75
2022/06/02 06:11:06;;;;;;;6.33;4.27;;;17.80;99.90;;;;;;4968170;28;20233;-75
2022/06/02 06:14:14;;;;;;;5.50;4.30;;;17.70;99.90;;;;;;4987987;28;20202;-75
2022/06/02 06:16:49;;;;;;;5.10;3.80;;;17.80;99.90;;;;;;4989332;28;20274;-75
2022/06/02 06:19:34;;;;;;;4.97;4.07;;;18.00;99.90;;;;;;4989371;28;20662;-75
2022/06/02 06:22:30;;;;;;;6.43;3.87;;;19.30;99.90;;;;;;4990266;28;20210;-75
2022/06/02 06:25:12;;;;;;;5.43;3.63;;;19.50;99.90;;;;;;4974363;28;20218;-76
2022/06/02 06:27:54;;;;;;;5.67;4.00;;;20.40;99.90;;;;;;4994026;28;20238;-78
2022/06/02 06:30:32;;;;;;;6.83;4.17;;;22.00;99.90;;;;;;4993932;28;20241;-76
2022/06/02 06:33:12;;;;;;;4.43;3.80;;;22.60;99.90;;;;;;4994905;28;20206;-78
2022/06/02 06:35:58;;;;;;;4.73;3.30;;;23.10;99.90;;;;;;4993305;28;20289;-77
2022/06/02 06:38:45;;;;;;;4.97;3.50;;;23.70;99.90;;;;;;4994965;28;20206;-77
2022/06/02 06:41:46;;;;;;;3.63;3.28;;;23.80;99.90;;;;;;4989479;28;20250;-77
2022/06/02 06:44:25;;;;;;;4.95;3.50;;;24.40;99.90;;;;;;4975053;28;20289;-79
2022/06/02 06:47:01;;;;;;;3.88;3.47;;;25.90;99.90;;;;;;4990706;28;20229;-78
2022/06/02 06:49:42;;;;;;;3.63;3.10;;;26.60;97.70;;;;;;4987920;28;20221;-78
2022/06/02 06:52:31;;;;;;;5.57;3.63;;;26.90;95.60;;;;;;4986218;28;20262;-77
2022/06/02 06:55:08;;;;;;;5.65;3.53;;;26.20;97.60;;;;;;4985427;28;20293;-79
2022/06/02 06:57:43;;;;;;;6.05;3.00;;;27.50;95.50;;;;;;4992183;28;20202;-79
2022/06/02 07:00:19;;;;;;;4.65;3.50;;;27.70;94.00;;;;;;4979569;28;20313;-77
2022/06/02 07:02:58;;;;;;;4.43;3.10;;;27.20;92.50;;;;;;4990890;28;20206;-80
2022/06/02 07:05:33;;;;;;;4.65;3.55;;;26.90;92.90;;;;;;4990597;28;20213;-79
2022/06/02 07:08:12;;;;;;;3.60;3.20;;;26.50;94.00;;;;;;4984191;28;20572;-81
2022/06/02 07:10:47;;;;;;;3.35;3.05;;;25.80;95.10;;;;;;4991174;28;20249;-80
2022/06/02 07:13:26;;;;;;;4.13;3.30;;;27.00;93.70;;;;;;4987490;28;20214;-79
2022/06/02 07:16:00;;;;;;;4.95;3.25;;;28.10;91.30;;;;;;4994122;28;20516;-79
2022/06/02 07:18:38;;;;;;;3.72;3.03;;;29.30;90.00;;;;;;4994770;28;20313;-77
2022/06/02 07:21:23;;;;;;;4.55;3.42;;;27.70;91.10;;;;;;4990694;28;20568;-79
2022/06/02 07:24:03;;;;;;;5.20;3.15;;;27.80;91.00;;;;;;4993520;28;20210;-80
2022/06/02 07:26:44;;;;;;;5.53;3.35;;;28.30;87.40;;;;;;4995612;28;20210;-80
2022/06/02 07:29:32;;;;;;;4.90;3.30;;;27.80;90.50;;;;;;4992392;28;20266;-79
2022/06/02 07:32:37;;;;;;;5.07;3.20;;;28.50;89.40;;;;;;4992864;28;20240;-79
2022/06/02 07:35:47;;;;;;;6.03;3.60;;;29.10;89.30;;;;;;4977874;28;20207;-80
2022/06/02 07:38:34;;;;;;;3.85;2.97;;;27.20;90.20;;;;;;4978988;28;20222;-79
2022/06/02 07:41:19;;;;;;;4.28;3.33;;;27.80;91.90;;;;;;4994689;28;20213;-80
2022/06/02 07:44:29;;;;;;;3.75;3.05;;;27.80;89.10;;;;;;4984640;28;20203;-78
2022/06/02 07:47:16;;;;;;;4.30;3.05;;;27.80;90.30;;;;;;4930776;29;20327;-77
2022/06/02 07:49:56;;;;;;;3.60;3.20;;;29.10;86.20;;;;;;4986118;28;20233;-79
2022/06/02 07:52:35;;;;;;;5.25;3.17;;;29.00;84.30;;;;;;4990095;28;20264;-78
2022/06/02 07:55:14;;;;;;;3.85;3.20;;;28.20;89.20;;;;;;4989031;28;20287;-78
2022/06/02 07:57:52;;;;;;;5.35;3.10;;;27.70;88.40;;;;;;4993380;28;20297;-79
2022/06/02 08:00:22;;;;;;;4.68;3.08;;;28.20;86.40;;;;;;4992780;28;20237;-78
2022/06/02 08:03:21;;;;;;;3.35;2.97;;;29.20;80.50;;;;;;4987381;28;20306;-78
2022/06/02 08:05:59;;;;;;;5.38;3.00;;;28.80;83.70;;;;;;4992919;28;20210;-79
2022/06/02 08:08:54;;;;;;;6.18;3.08;;;29.30;83.50;;;;;;4979233;28;20210;-79
2022/06/02 08:11:33;;;;;;;4.13;2.95;;;29.10;80.80;;;;;;4992129;28;20693;-78
2022/06/02 08:14:12;;;;;;;4.63;3.05;;;29.00;82.00;;;;;;4991931;28;20218;-80
2022/06/02 08:16:52;;;;;;;5.13;2.90;;;28.70;86.50;;;;;;4992390;28;20273;-79
2022/06/02 08:19:46;;;;;;;4.60;3.35;;;29.00;84.80;;;;;;4992631;28;20236;-78
2022/06/02 08:22:24;;;;;;;6.57;3.20;;;28.00;84.40;;;;;;4992492;28;20202;-77
2022/06/02 08:25:03;;;;;;;4.65;3.35;;;27.40;88.10;;;;;;4985100;28;20250;-78
2022/06/02 08:27:51;;;;;;;5.65;2.78;;;26.40;91.30;;;;;;4987753;28;20211;-78
2022/06/02 08:30:35;;;;;;;4.40;3.40;;;27.30;91.30;;;;;;4992278;28;20579;-79
2022/06/02 08:33:17;;;;;;;4.45;3.38;;;27.50;86.60;;;;;;4983296;28;20735;-78
2022/06/02 08:35:49;;;;;;;4.20;3.00;;;28.30;87.80;;;;;;4991821;28;20288;-77
2022/06/02 08:38:41;;;;;;;3.63;3.30;;;27.70;86.50;;;;;;4992314;28;20214;-79
2022/06/02 08:41:55;;;;;;;7.63;3.30;;;27.70;88.00;;;;;;4989855;28;20229;-76
2022/06/02 08:45:02;;;;;;;5.05;2.97;;;27.60;80.60;;;;;;4978379;28;20872;-78
2022/06/02 08:48:10;;;;;;;3.15;2.70;;;27.70;84.60;;;;;;4989125;28;20206;-78
2022/06/02 08:51:14;;;;;;;5.88;2.70;;;27.80;82.40;;;;;;4991471;28;20222;-79
2022/06/02 08:54:27;;;;;;;4.13;2.90;;;28.50;76.00;;;;;;4990417;28;20210;-80
2022/06/02 08:57:18;;;;;;;3.83;2.53;;;28.80;74.40;;;;;;4967190;28;20253;-77
2022/06/02 09:00:20;;;;;;;3.45;2.53;;;28.80;76.60;;;;;;4991785;28;20206;-79
2022/06/02 09:03:33;;;;;;;4.72;2.58;;;28.50;79.60;;;;;;4990449;28;20230;-78
2022/06/02 09:06:35;;;;;;;4.32;2.60;;;26.90;79.40;;;;;;4988455;28;20216;-77
2022/06/02 09:09:21;;;;;;;4.45;2.40;;;27.00;82.20;;;;;;4992188;28;20210;-77
2022/06/02 09:12:21;;;;;;;3.10;2.47;;;27.50;84.90;;;;;;4986767;28;20519;-77
2022/06/02 09:15:17;;;;;;;3.85;2.63;;;27.60;83.80;;;;;;4978157;28;20211;-77
2022/06/02 09:17:53;;;;;;;5.18;3.33;;;28.20;84.70;;;;;;4983407;28;20234;-77
2022/06/02 09:20:44;;;;;;;5.28;2.63;;;28.50;82.00;;;;;;4991764;28;20608;-77
2022/06/02 09:23:48;;;;;;;6.35;3.20;;;27.70;83.00;;;;;;4991223;28;20309;-77
2022/06/02 09:26:35;;;;;;;3.53;2.65;;;28.70;78.90;;;;;;4908204;29;20273;-78
2022/06/02 09:29:20;;;;;;;3.95;2.78;;;29.30;77.80;;;;;;4899748;29;20370;-77
2022/06/02 09:32:11;;;;;;;4.38;2.65;;;29.80;78.40;;;;;;4969829;28;20254;-78
2022/06/02 09:35:08;;;;;;;2.90;2.30;;;30.10;76.80;;;;;;4988070;28;20207;-77
2022/06/02 09:38:17;;;;;;;2.67;2.38;;;30.40;75.30;;;;;;4992078;28;20214;-79
2022/06/02 09:40:48;;;;;;;3.20;2.30;;;30.60;73.20;;;;;;4991381;28;20603;-77
2022/06/02 09:43:55;;;;;;;7.43;2.25;;;30.30;68.60;;;;;;4989686;28;20245;-77
2022/06/02 09:47:01;;;;;;;4.25;2.40;;;30.30;66.00;;;;;;4974705;28;20647;-78
2022/06/02 09:49:47;;;;;;;3.05;2.10;;;30.00;67.00;;;;;;4981676;28;20209;-79
2022/06/02 09:52:28;;;;;;;3.17;2.28;;;29.50;66.00;;;;;;4991431;28;20322;-78
2022/06/02 09:55:24;;;;;;;5.13;2.60;;;30.00;71.30;;;;;;4991756;28;20238;-78
2022/06/02 09:58:20;;;;;;;3.67;2.28;;;30.10;69.70;;;;;;4987634;28;20203;-78
2022/06/02 10:01:06;;;;;;;4.78;2.05;;;30.10;67.10;;;;;;4990136;28;20206;-77
2022/06/02 10:03:58;;;;;;;4.18;2.17;;;29.30;70.70;;;;;;4988008;28;20241;-77
2022/06/02 10:07:05;;;;;;;2.22;1.80;;;29.30;65.30;;;;;;4988737;28;20269;-77
2022/06/02 10:09:54;;;;;;;3.22;1.92;;;29.40;69.40;;;;;;4936387;28;20524;-79
2022/06/02 10:15:39;;;;;;;3.22;1.50;;;28.40;70.00;;;;;;4994592;28;20252;-78
2022/06/02 10:18:29;;;;;;;3.65;1.50;;;28.80;64.70;;;;;;4995027;28;20206;-78
2022/06/02 10:21:13;;;;;;;2.85;1.70;;;29.40;58.70;;;;;;4994675;28;20260;-78
2022/06/02 10:24:08;;;;;;;3.47;1.60;;;29.90;60.80;;;;;;4994052;28;20206;-77
2022/06/02 10:26:51;;;;;;;2.42;1.70;;;29.90;59.60;;;;;;4955172;28;20631;-78
2022/06/02 10:29:44;;;;;;;3.05;1.85;;;29.30;58.20;;;;;;4994942;28;20261;-77
2022/06/02 10:32:39;;;;;;;3.42;2.28;;;29.20;62.10;;;;;;4994613;28;20215;-79
2022/06/02 10:35:35;;;;;;;2.55;2.03;;;28.80;65.00;;;;;;4991544;28;20214;-77
2022/06/02 10:38:23;;;;;;;2.38;2.00;;;29.00;69.50;;;;;;4984990;28;20306;-77
2022/06/02 10:41:11;;;;;;;3.88;2.00;;;29.70;67.20;;;;;;4994078;28;20611;-76
2022/06/02 10:44:12;;;;;;;4.28;2.00;;;30.00;67.30;;;;;;4993596;28;20206;-76
2022/06/02 10:47:21;;;;;;;4.68;2.05;;;29.80;65.60;;;;;;4994345;28;20268;-77
2022/06/02 10:49:59;;;;;;;3.58;2.03;;;29.60;71.00;;;;;;4970184;28;20254;-77
2022/06/02 10:53:18;;;;;;;3.28;2.08;;;29.00;67.20;;;;;;4983584;28;20238;-78
2022/06/02 10:56:15;;;;;;;2.95;1.88;;;28.90;66.20;;;;;;4915152;29;20295;-76
2022/06/02 10:59:36;;;;;;;2.97;1.95;;;29.70;71.30;;;;;;4993980;28;20214;-78
2022/06/02 11:02:51;;;;;;;3.75;1.92;;;29.30;66.40;;;;;;4951158;28;20218;-76
2022/06/02 11:06:05;;;;;;;3.20;1.90;;;28.40;69.20;;;;;;4978745;28;20206;-76
2022/06/02 11:09:06;;;;;;;4.55;1.90;;;26.90;75.70;;;;;;4994330;28;20213;-76
2022/06/02 11:12:08;;;;;;;3.20;2.05;;;26.60;76.60;;;;;;4978546;28;20589;-77
2022/06/02 11:15:14;;;;;;;3.65;1.90;;;27.50;77.70;;;;;;4993930;28;20719;-77
2022/06/02 11:18:11;;;;;;;3.58;1.70;;;27.70;77.10;;;;;;4956777;28;20230;-77
2022/06/02 11:21:05;;;;;;;3.75;1.92;;;27.30;75.20;;;;;;4993738;28;20233;-77
2022/06/02 11:24:26;;;;;;;4.93;2.05;;;26.00;73.50;;;;;;4992994;28;20218;-74
2022/06/02 11:27:39;;;;;;;2.47;1.80;;;25.30;79.80;;;;;;4990485;28;20277;-77
2022/06/02 11:30:48;;;;;;;4.17;2.20;;;25.20;82.90;;;;;;4938783;28;20216;-76
2022/06/02 11:33:34;;;;;;;6.60;2.53;;;25.60;81.70;;;;;;4992922;28;20210;-76
2022/06/02 11:36:30;;;;;;;2.33;2.00;;;26.50;81.70;;;;;;4979492;28;20726;-77
2022/06/02 11:39:27;;;;;;;4.15;2.03;;;26.60;82.30;;;;;;4993510;28;20222;-76
2022/06/02 11:42:10;;;;;;;3.38;1.92;;;26.40;80.70;;;;;;4987952;28;20203;-76
2022/06/02 11:44:54;;;;;;;4.13;1.93;;;26.70;74.50;;;;;;4985365;28;20326;-75
2022/06/02 11:47:47;;;;;;;4.33;1.70;;;26.40;79.40;;;;;;4992196;28;20244;-76
2022/06/02 11:50:50;;;;;;;2.03;1.70;;;26.10;78.10;;;;;;4994746;28;20302;-75
2022/06/02 11:53:45;;;;;;;3.43;2.03;;;25.50;75.90;;;;;;4983267;28;20655;-77
2022/06/02 11:56:21;;;;;;;2.90;1.70;;;25.40;75.00;;;;;;4965297;28;20636;-78
2022/06/02 11:59:30;;;;;;;3.17;2.13;;;25.40;82.30;;;;;;4993809;28;20241;-75
2022/06/02 12:02:37;;;;;;;2.43;1.97;;;25.30;79.80;;;;;;4984719;28;20221;-79
2022/06/02 12:05:40;;;;;;;3.97;2.00;;;25.00;83.50;;;;;;4945065;28;20276;-78
2022/06/02 12:08:37;;;;;;;4.37;2.00;;;25.30;80.50;;;;;;4993345;28;20210;-75
2022/06/02 12:11:27;;;;;;;3.97;1.90;;;25.70;82.30;;;;;;4991983;28;20226;-77
2022/06/02 12:14:08;;;;;;;2.27;1.60;;;26.00;80.40;;;;;;4959808;28;20671;-77
2022/06/02 12:17:06;;;;;;;2.90;1.67;;;25.70;78.00;;;;;;4987322;28;20234;-76
2022/06/02 12:20:02;;;;;;;1.93;1.50;;;25.00;73.30;;;;;;4969174;28;20219;-77
2022/06/02 12:22:49;;;;;;;2.67;1.73;;;25.20;74.60;;;;;;4992024;28;20241;-78
2022/06/02 12:25:40;;;;;;;3.63;1.60;;;25.50;76.60;;;;;;4990243;28;20719;-79
2022/06/02 12:28:56;;;;;;;3.17;1.73;;;25.50;79.60;;;;;;4976229;28;20214;-75
2022/06/02 12:31:48;;;;;;;3.00;1.70;;;25.80;82.20;;;;;;4958273;28;20651;-75
2022/06/02 12:34:41;;;;;;;3.70;1.70;;;25.90;80.30;;;;;;4982377;28;20273;-76
2022/06/02 12:37:36;;;;;;;4.20;1.60;;;25.80;80.90;;;;;;4973447;28;20276;-76
2022/06/02 12:40:28;;;;;;;3.67;1.80;;;26.40;77.00;;;;;;4981443;28;20629;-77
2022/06/02 12:43:19;;;;;;;3.57;1.87;;;26.20;79.90;;;;;;4962827;28;20211;-77
2022/06/02 12:45:49;;;;;;;3.07;1.60;;;26.10;76.20;;;;;;4989796;28;20202;-77
2022/06/02 12:48:52;;;;;;;5.30;1.90;;;26.00;81.20;;;;;;4992732;28;20210;-77
2022/06/02 12:51:38;;;;;;;2.43;1.77;;;26.10;76.30;;;;;;4980571;28;20222;-77
2022/06/02 12:54:49;;;;;;;2.13;1.63;;;25.60;79.00;;;;;;4991725;28;20677;-79
2022/06/02 12:58:04;;;;;;;3.97;1.57;;;24.60;78.10;;;;;;4984764;28;20211;-77
2022/06/02 13:00:50;;;;;;;4.27;2.00;;;24.50;80.30;;;;;;4992423;28;20234;-80
2022/06/02 13:03:52;;;;;;;3.77;1.63;;;24.30;81.80;;;;;;4991651;28;20220;-78
2022/06/02 13:06:55;;;;;;;1.90;1.77;;;24.10;83.50;;;;;;4992103;28;20736;-81
2022/06/02 13:09:59;;;;;;;2.37;1.90;;;23.80;84.00;;;;;;4988373;28;20274;-79
2022/06/02 13:13:02;;;;;;;4.70;2.00;;;23.90;85.20;;;;;;4953239;28;20328;-79
2022/06/02 13:15:50;;;;;;;3.93;2.10;;;23.40;81.80;;;;;;4992733;28;20262;-75
2022/06/02 13:18:56;;;;;;;4.30;1.87;;;23.60;82.40;;;;;;4989175;28;20219;-77
2022/06/02 13:22:06;;;;;;;4.67;1.93;;;23.70;90.10;;;;;;4983275;28;20310;-75
2022/06/02 13:25:04;;;;;;;2.70;1.90;;;23.90;81.60;;;;;;4979664;28;20215;-80
2022/06/02 13:27:59;;;;;;;3.23;1.60;;;24.70;81.20;;;;;;4991986;28;20313;-79
2022/06/02 13:30:58;;;;;;;2.37;1.67;;;25.30;81.50;;;;;;4989506;28;20293;-76
2022/06/02 13:34:02;;;;;;;3.70;1.80;;;25.80;85.20;;;;;;4985076;28;20248;-76
2022/06/02 13:36:45;;;;;;;3.37;1.63;;;26.30;80.90;;;;;;4991828;28;20237;-74
2022/06/02 13:39:51;;;;;;;3.63;1.70;;;26.50;76.90;;;;;;4994926;28;20205;-75
2022/06/02 13:43:05;;;;;;;4.67;1.93;;;27.00;84.00;;;;;;4976861;28;20285;-76
2022/06/02 13:46:02;;;;;;;2.37;1.70;;;26.90;77.30;;;;;;4991690;28;20269;-74
2022/06/02 13:49:19;;;;;;;2.47;1.80;;;26.10;78.10;;;;;;4987160;28;20302;-75
2022/06/02 13:52:38;;;;;;;4.50;2.00;;;25.00;83.10;;;;;;4945510;28;20238;-79
2022/06/02 13:58:37;;;;;;;3.23;1.87;;;24.30;81.90;;;;;;4984985;28;20206;-76
2022/06/02 14:01:28;;;;;;;4.97;3.13;;;24.00;84.60;;;;;;4978879;28;20202;-77
2022/06/02 14:04:37;;;;;;;2.97;1.63;;;23.60;82.60;;;;;;4994936;28;20558;-75
2022/06/02 14:07:19;;;;;;;4.87;2.03;;;23.40;86.20;;;;;;4984558;28;20218;-76
2022/06/02 14:10:04;;;;;;;3.70;1.80;;;23.40;83.20;;;;;;4994957;28;20202;-77
2022/06/02 14:12:48;;;;;;;5.10;2.07;;;23.70;81.50;;;;;;4993132;28;20700;-77
2022/06/02 14:15:38;;;;;;;3.03;1.90;;;24.00;83.20;;;;;;4987635;28;20205;-76
2022/06/02 14:18:38;;;;;;;3.27;1.90;;;24.20;80.90;;;;;;4987103;28;20298;-77
2022/06/02 14:21:14;;;;;;;2.17;1.60;;;24.60;83.10;;;;;;4991477;28;20577;-76
2022/06/02 14:24:01;;;;;;;2.87;1.70;;;24.40;86.20;;;;;;4992252;28;20257;-78
2022/06/02 14:26:44;;;;;;;5.10;2.07;;;24.40;86.70;;;;;;4989672;28;20272;-76
2022/06/02 14:29:26;;;;;;;3.00;1.90;;;24.50;81.70;;;;;;4987185;28;20206;-74
2022/06/02 14:32:05;;;;;;;2.70;1.90;;;24.40;86.10;;;;;;4992443;28;20554;-76
2022/06/02 14:34:45;;;;;;;2.57;1.60;;;24.30;86.20;;;;;;4992030;28;20323;-77
2022/06/02 14:37:20;;;;;;;2.87;1.67;;;24.50;83.00;;;;;;4994902;28;20206;-78
2022/06/02 14:39:58;;;;;;;1.90;1.70;;;24.70;85.20;;;;;;4985834;28;20206;-76
2022/06/02 14:43:04;;;;;;;3.60;1.77;;;24.70;82.80;;;;;;4990638;28;20253;-75
2022/06/02 14:45:59;;;;;;;2.57;1.83;;;24.80;80.40;;;;;;4988759;28;20211;-75
2022/06/02 14:48:42;;;;;;;3.10;1.73;;;24.90;80.80;;;;;;4978764;28;20688;-76
2022/06/02 14:51:16;;;;;;;3.13;1.90;;;24.60;81.20;;;;;;4988826;28;20206;-75
2022/06/02 14:54:10;;;;;;;5.63;2.00;;;24.30;81.50;;;;;;4988241;28;20214;-76
2022/06/02 14:56:58;;;;;;;2.73;1.70;;;24.10;80.40;;;;;;4984766;28;20253;-77
2022/06/02 15:00:00;;;;;;;3.53;2.03;;;23.90;83.40;;;;;;4988025;28;20217;-78
2022/06/02 15:02:59;;;;;;;3.23;1.80;;;23.80;81.90;;;;;;4990117;28;20209;-74
2022/06/02 15:05:42;;;;;;;3.57;1.90;;;23.70;83.30;;;;;;4989404;28;20206;-77
2022/06/02 15:08:41;;;;;;;4.43;1.90;;;23.70;85.20;;;;;;4979117;28;20248;-76
2022/06/02 15:11:13;;;;;;;2.80;1.63;;;23.50;88.30;;;;;;4991119;28;20268;-76
2022/06/02 15:13:59;;;;;;;3.47;1.80;;;23.40;89.20;;;;;;4993167;28;20219;-79
2022/06/02 15:17:02;;;;;;;5.77;1.90;;;23.30;87.20;;;;;;4976970;28;20234;-77
2022/06/02 15:19:51;;;;;;;3.60;1.87;;;23.10;91.20;;;;;;4993703;28;20651;-76
2022/06/02 15:23:27;;;;;;;3.13;1.70;;;22.80;88.70;;;;;;4987435;28;20206;-79
2022/06/02 15:26:07;;;;;;;3.03;2.07;;;22.60;90.50;;;;;;4989731;28;20241;-77
2022/06/02 15:29:12;;;;;;;4.43;1.80;;;22.60;90.90;;;;;;4993904;28;20340;-79
2022/06/02 15:32:04;;;;;;;4.63;1.80;;;22.80;90.20;;;;;;4982578;28;20275;-74
2022/06/02 15:35:07;;;;;;;2.83;1.60;;;22.60;90.40;;;;;;4982670;28;20241;-78
2022/06/02 15:38:08;;;;;;;1.90;1.77;;;22.70;90.40;;;;;;4993932;28;20871;-79
2022/06/02 15:41:19;;;;;;;3.47;1.73;;;22.90;89.10;;;;;;4994159;28;20210;-75
2022/06/02 15:44:27;;;;;;;2.60;1.70;;;22.90;90.10;;;;;;4980738;28;20210;-78
2022/06/02 15:47:32;;;;;;;2.77;1.80;;;22.90;90.80;;;;;;4992690;28;20213;-79
2022/06/02 15:50:29;;;;;;;2.13;1.70;;;22.80;87.20;;;;;;4978054;28;20242;-77
2022/06/02 15:53:29;;;;;;;2.30;1.80;;;22.80;87.30;;;;;;4980988;28;20257;-75
2022/06/02 15:56:40;;;;;;;4.13;1.90;;;22.80;89.00;;;;;;4991310;28;20246;-75
2022/06/02 15:59:43;;;;;;;4.00;1.90;;;22.70;91.30;;;;;;4918965;29;20682;-76
2022/06/02 16:02:52;;;;;;;2.43;1.80;;;22.80;90.40;;;;;;4973175;28;20217;-78
2022/06/02 16:05:43;;;;;;;3.00;1.80;;;22.70;89.40;;;;;;4990547;28;20269;-75
2022/06/02 16:11:14;;;;;;;3.00;2.00;;;22.50;90.00;;;;;;5004644;28;20216;-77
2022/06/02 16:12:21;;;;;;;2.27;2.00;;;22.50;90.20;;;;;;4986426;28;20210;-78
2022/06/02 16:15:21;;;;;;;2.87;2.00;;;22.50;92.70;;;;;;4986951;28;20297;-76
2022/06/02 16:18:17;;;;;;;2.23;2.00;;;22.50;93.30;;;;;;4980443;28;20728;-77
2022/06/02 16:21:34;;;;;;;3.03;1.93;;;22.50;90.20;;;;;;4992162;28;20214;-77
2022/06/02 16:24:26;;;;;;;3.13;2.00;;;22.50;90.90;;;;;;4995840;28;20214;-78
2022/06/02 16:27:24;;;;;;;4.10;1.80;;;22.40;90.70;;;;;;4987454;28;20214;-81
2022/06/02 16:30:07;;;;;;;4.37;2.07;;;22.30;91.80;;;;;;4982314;28;20222;-76
2022/06/02 16:33:16;;;;;;;2.53;2.00;;;22.20;90.80;;;;;;4985325;28;20242;-76
2022/06/02 16:36:02;;;;;;;3.27;2.10;;;22.10;90.70;;;;;;4990905;28;20241;-79
2022/06/02 16:38:36;;;;;;;6.83;1.80;;;22.10;90.30;;;;;;4978411;28;20214;-78
2022/06/02 16:41:30;;;;;;;3.77;2.00;;;22.00;90.80;;;;;;4988000;28;20271;-78
2022/06/02 16:44:26;;;;;;;2.20;2.00;;;21.90;92.10;;;;;;4989573;28;20222;-77
2022/06/02 16:47:09;;;;;;;3.47;2.00;;;21.90;92.80;;;;;;4962912;28;20241;-78
2022/06/02 16:49:51;;;;;;;4.13;2.00;;;22.00;93.20;;;;;;4992800;28;20202;-79
2022/06/02 16:53:02;;;;;;;3.67;2.10;;;22.00;91.50;;;;;;4992916;28;20210;-78
2022/06/02 16:55:49;;;;;;;2.70;1.70;;;22.00;90.80;;;;;;4992629;28;20244;-78
2022/06/02 16:58:52;;;;;;;5.13;2.10;;;22.00;92.70;;;;;;4982257;28;20241;-78
2022/06/02 17:01:46;;;;;;;2.07;1.87;;;22.00;92.80;;;;;;4984345;28;20206;-78
2022/06/02 17:04:57;;;;;;;5.43;2.00;;;21.90;93.30;;;;;;4992130;28;20718;-77
2022/06/02 17:07:47;;;;;;;3.33;2.23;;;21.90;92.30;;;;;;4992635;28;20258;-77
2022/06/02 17:10:25;;;;;;;4.33;2.00;;;21.80;92.10;;;;;;4985025;28;20210;-76
2022/06/02 17:12:59;;;;;;;2.63;1.83;;;21.70;91.70;;;;;;4985298;28;20218;-76
2022/06/02 17:16:01;;;;;;;3.70;1.87;;;21.60;93.10;;;;;;4979230;28;20202;-79
2022/06/02 17:18:43;;;;;;;5.13;3.13;;;21.60;93.00;;;;;;4983403;28;20209;-77
2022/06/02 17:21:26;;;;;;;3.10;2.30;;;21.60;93.10;;;;;;4986281;28;20235;-78
2022/06/02 17:24:28;;;;;;;2.83;2.10;;;21.60;92.80;;;;;;4992336;28;20560;-76
2022/06/02 17:27:16;;;;;;;3.97;2.10;;;21.50;93.10;;;;;;4988485;28;20258;-76
2022/06/02 17:29:52;;;;;;;5.27;2.40;;;21.50;93.50;;;;;;4983265;28;20582;-78
2022/06/02 17:32:54;;;;;;;2.43;2.10;;;21.40;94.50;;;;;;4982773;28;20273;-78
2022/06/02 17:35:53;;;;;;;3.37;2.30;;;21.40;94.40;;;;;;4988366;28;20745;-79
2022/06/02 17:39:09;;;;;;;2.63;2.10;;;21.30;94.00;;;;;;4986032;28;20237;-78
2022/06/02 17:42:16;;;;;;;3.13;2.10;;;21.30;93.80;;;;;;4974981;28;20206;-74
2022/06/02 17:44:57;;;;;;;4.20;2.17;;;21.10;94.20;;;;;;4986392;28;20664;-78
2022/06/02 17:47:46;;;;;;;2.83;2.10;;;21.00;94.40;;;;;;4990388;28;20202;-78
2022/06/02 17:50:41;;;;;;;3.87;2.10;;;20.90;94.70;;;;;;4991354;28;20261;-79
2022/06/02 17:53:27;;;;;;;3.30;2.00;;;20.90;95.80;;;;;;4991567;28;20210;-75
2022/06/02 17:56:25;;;;;;;3.27;2.23;;;20.80;96.00;;;;;;4992950;28;20266;-78
2022/06/02 17:59:33;;;;;;;2.70;2.00;;;20.70;96.20;;;;;;4992043;28;20301;-78
2022/06/02 18:02:11;;;;;;;4.03;2.20;;;20.70;96.90;;;;;;4987201;28;20206;-78
2022/06/02 18:05:10;;;;;;;5.53;2.40;;;20.50;97.30;;;;;;4987898;28;20222;-77
2022/06/02 18:07:51;;;;;;;3.40;2.20;;;20.50;98.20;;;;;;4981960;28;20214;-79
2022/06/02 18:10:51;;;;;;;3.57;2.20;;;20.50;98.40;;;;;;4992084;28;20206;-79
2022/06/02 18:13:41;;;;;;;6.27;2.50;;;20.40;99.60;;;;;;4965178;28;20246;-78
2022/06/02 18:16:32;;;;;;;4.80;2.30;;;20.30;99.90;;;;;;4992477;28;20314;-79
2022/06/02 18:19:16;;;;;;;4.00;2.20;;;20.20;99.90;;;;;;4981832;28;20237;-77
2022/06/02 18:22:10;;;;;;;5.20;2.43;;;20.20;99.90;;;;;;4990990;28;20245;-76
2022/06/02 18:25:10;;;;;;;4.53;2.37;;;20.10;99.90;;;;;;4995513;28;20540;-79
2022/06/02 18:28:03;;;;;;;4.17;2.43;;;20.10;99.90;;;;;;4991686;28;20269;-79
2022/06/02 18:31:05;;;;;;;3.60;2.17;;;20.10;99.90;;;;;;4975614;28;20298;-78
2022/06/02 18:33:51;;;;;;;4.30;2.47;;;20.10;99.90;;;;;;4989243;28;20258;-79
2022/06/02 18:36:37;;;;;;;5.20;2.20;;;20.00;99.90;;;;;;4982773;28;20283;-75
2022/06/02 18:39:25;;;;;;;3.13;2.23;;;20.00;99.90;;;;;;4996458;28;20242;-75
2022/06/02 18:42:19;;;;;;;6.53;2.53;;;19.90;99.90;;;;;;4991576;28;20265;-78
2022/06/02 18:45:18;;;;;;;5.93;2.50;;;19.90;99.90;;;;;;4984547;28;20656;-77
2022/06/02 18:48:23;;;;;;;3.33;2.73;;;19.80;99.90;;;;;;4968620;28;20636;-78
2022/06/02 18:51:26;;;;;;;3.90;2.50;;;19.70;99.90;;;;;;4985564;28;20257;-78
2022/06/02 18:54:30;;;;;;;6.57;2.80;;;19.70;99.90;;;;;;4994132;28;20297;-78
2022/06/02 18:57:14;;;;;;;4.33;2.70;;;19.60;99.90;;;;;;4990574;28;20260;-77
2022/06/02 19:00:15;;;;;;;5.23;2.53;;;19.50;99.90;;;;;;4987586;28;20261;-79
2022/06/02 19:03:20;;;;;;;5.63;2.80;;;19.40;99.90;;;;;;4984894;28;20265;-75
2022/06/02 19:15:49;;;;;;;3.63;2.80;;;19.10;99.90;;;;;;4990217;28;20226;-78
2022/06/02 19:19:06;;;;;;;4.73;2.70;;;19.00;99.90;;;;;;4993595;28;20213;-78